Weather at Peterborough Airport

Public forecast

Using degrees Celsius for public forecast. Weather courtesy of forecast.io.

Current aviation weather report (METAR) for Peterborough Airport

Retrieved 2021/11/29 18:00 UTC (41 minutes ago):

CYPQ 291800Z AUTO 00000KT 9SM CLR M03/M11 A2996 RMK SLP160

Aviation forecast (TAF) for Peterborough Airport

Retrieved 2021/11/29 14:39 UTC (4 hours ago):

TAF CYPQ 291338Z 2914/3002 26005KT P6SM FEW020 SCT060 TEMPO 2914/2916 3SM BR FM292000 24005KT P6SM SCT040 BKN160 FM300000 24005KT P6SM BKN040 RMK FCST BASED ON AUTO OBS NXT FCST BY 292000Z